createdAt,value
2018-01-21T00:02:06.795Z,13.43
2018-01-21T00:04:34.214Z,13.30
2018-01-21T00:07:01.655Z,13.93
2018-01-21T00:09:29.087Z,10.37
2018-01-21T00:11:56.519Z,9.20
2018-01-21T00:14:23.947Z,8.97
2018-01-21T00:16:51.387Z,19.43
2018-01-21T00:19:18.823Z,12.27
2018-01-21T00:21:46.250Z,9.93
2018-01-21T00:24:13.691Z,8.63
2018-01-21T00:26:41.125Z,11.70
2018-01-21T00:29:09.344Z,7.53
2018-01-21T00:31:37.524Z,6.60
2018-01-21T00:34:05.736Z,12.90
2018-01-21T00:36:33.934Z,29.00
2018-01-21T00:39:02.138Z,11.67
2018-01-21T00:41:29.566Z,13.37
2018-01-21T00:43:57.003Z,9.27
2018-01-21T00:46:24.431Z,6.03
2018-01-21T00:48:51.866Z,5.00
2018-01-21T00:51:19.328Z,5.37
2018-01-21T00:53:46.746Z,5.57
2018-01-21T00:56:14.179Z,5.27
2018-01-21T00:58:42.378Z,6.30
2018-01-21T01:01:10.570Z,5.87
2018-01-21T01:03:38.011Z,7.93
2018-01-21T01:06:05.439Z,5.50
2018-01-21T01:08:33.643Z,6.03
2018-01-21T01:11:01.846Z,5.37
2018-01-21T01:13:30.043Z,4.70
2018-01-21T01:15:58.234Z,4.30
2018-01-21T01:18:26.439Z,4.73
2018-01-21T01:20:54.634Z,5.53
2018-01-21T01:23:22.839Z,4.33
2018-01-21T01:25:50.266Z,4.43
2018-01-21T01:28:17.703Z,4.10
2018-01-21T01:30:45.131Z,4.90
2018-01-21T01:33:12.563Z,5.10
2018-01-21T01:35:39.991Z,3.70
2018-01-21T01:38:07.431Z,5.27
2018-01-21T01:40:34.899Z,5.30
2018-01-21T01:43:02.320Z,4.77
2018-01-21T01:45:29.752Z,3.67
2018-01-21T01:47:57.951Z,4.30
2018-01-21T01:50:26.204Z,3.57
2018-01-21T01:52:53.640Z,4.90
2018-01-21T01:55:21.082Z,3.10
2018-01-21T01:57:48.563Z,3.13
2018-01-21T02:00:15.990Z,3.93
2018-01-21T02:02:43.428Z,3.37
2018-01-21T02:05:10.855Z,3.27
2018-01-21T02:07:38.294Z,3.60
2018-01-21T02:10:05.723Z,3.67
2018-01-21T02:12:33.158Z,3.00
2018-01-21T02:15:00.591Z,2.80
2018-01-21T02:17:28.019Z,3.07
2018-01-21T02:19:55.451Z,2.70
2018-01-21T02:22:22.879Z,2.57
2018-01-21T02:24:50.318Z,2.37
2018-01-21T02:27:17.747Z,2.37
2018-01-21T02:29:45.951Z,2.00
2018-01-21T02:32:14.150Z,2.23
2018-01-21T02:34:42.347Z,2.13
2018-01-21T02:37:10.543Z,2.53
2018-01-21T02:39:38.745Z,2.70
2018-01-21T02:42:06.940Z,2.30
2018-01-21T02:44:35.153Z,2.70
2018-01-21T02:47:03.356Z,2.60
2018-01-21T02:49:31.552Z,2.60
2018-01-21T02:51:59.749Z,2.53
2018-01-21T02:54:27.951Z,2.43
2018-01-21T02:56:55.383Z,2.63
2018-01-21T02:59:22.823Z,2.03
2018-01-21T03:01:50.251Z,2.00
2018-01-21T03:04:17.691Z,1.73
2018-01-21T03:06:45.132Z,2.03
2018-01-21T03:09:13.342Z,1.80
2018-01-21T03:11:41.543Z,2.30
2018-01-21T03:14:09.752Z,2.30
2018-01-21T03:16:37.179Z,1.57
2018-01-21T03:19:04.615Z,1.60
2018-01-21T03:21:32.052Z,1.60
2018-01-21T03:23:59.487Z,1.80
2018-01-21T03:26:26.920Z,1.97
2018-01-21T03:28:54.368Z,2.33
2018-01-21T03:31:21.796Z,2.50
2018-01-21T03:33:50.008Z,2.23
2018-01-21T03:36:17.434Z,3.80
2018-01-21T03:38:44.870Z,2.93
2018-01-21T03:41:12.304Z,3.10
2018-01-21T03:43:39.735Z,4.10
2018-01-21T03:46:07.163Z,3.40
2018-01-21T03:48:34.607Z,4.10
2018-01-21T03:51:02.039Z,4.47
2018-01-21T03:53:29.475Z,4.10
2018-01-21T03:55:57.672Z,4.77
2018-01-21T03:58:25.871Z,5.40
2018-01-21T04:00:54.067Z,4.57
2018-01-21T04:03:22.271Z,5.00
2018-01-21T04:05:50.480Z,6.60
2018-01-21T04:08:18.679Z,5.00
2018-01-21T04:10:46.876Z,5.20
2018-01-21T04:13:15.086Z,4.50
2018-01-21T04:15:42.512Z,4.57
2018-01-21T04:18:09.940Z,4.60
2018-01-21T04:20:38.145Z,5.47
2018-01-21T04:23:06.339Z,5.20
2018-01-21T04:25:34.539Z,5.07
2018-01-21T04:28:02.739Z,4.20
2018-01-21T04:30:30.952Z,4.40
2018-01-21T04:32:59.152Z,4.47
2018-01-21T04:35:27.357Z,4.10
2018-01-21T04:37:54.778Z,4.90
2018-01-21T04:40:22.223Z,4.87
2018-01-21T04:42:49.650Z,3.97
2018-01-21T04:45:17.091Z,4.13
2018-01-21T04:47:44.519Z,3.60
2018-01-21T04:50:11.955Z,4.07
2018-01-21T04:52:39.384Z,3.67
2018-01-21T04:55:06.824Z,3.73
2018-01-21T04:57:34.251Z,3.53
2018-01-21T05:00:02.371Z,8.50
2018-01-21T05:02:30.563Z,4.10
2018-01-21T05:04:58.007Z,3.10
2018-01-21T05:07:25.431Z,4.00
2018-01-21T05:09:53.631Z,4.40
2018-01-21T05:12:21.827Z,3.30
2018-01-21T05:14:50.032Z,3.20
2018-01-21T05:17:18.237Z,3.90
2018-01-21T05:19:46.431Z,4.20
2018-01-21T05:22:14.632Z,3.97
2018-01-21T05:24:42.831Z,4.27
2018-01-21T05:27:11.024Z,3.40
2018-01-21T05:29:38.460Z,3.40
2018-01-21T05:32:05.887Z,3.17
2018-01-21T05:34:33.320Z,4.80
2018-01-21T05:37:00.747Z,3.10
2018-01-21T05:39:28.184Z,2.43
2018-01-21T05:41:55.606Z,2.83
2018-01-21T05:44:23.047Z,3.00
2018-01-21T05:46:50.467Z,3.07
2018-01-21T05:49:17.906Z,4.00
2018-01-21T05:51:45.331Z,2.57
2018-01-21T05:54:12.766Z,3.00
2018-01-21T05:56:40.195Z,2.93
2018-01-21T05:59:07.631Z,2.10
2018-01-21T06:01:35.059Z,3.00
2018-01-21T06:04:02.670Z,6.50
2018-01-21T06:06:30.860Z,7.27
2018-01-21T06:08:58.296Z,3.13
2018-01-21T06:11:25.728Z,5.00
2018-01-21T06:13:53.927Z,4.67
2018-01-21T06:16:22.127Z,5.10
2018-01-21T06:18:50.336Z,3.30
2018-01-21T06:21:18.539Z,2.97
2018-01-21T06:23:46.737Z,3.23
2018-01-21T06:26:14.939Z,2.67
2018-01-21T06:28:43.140Z,2.60
2018-01-21T06:31:10.585Z,2.83
2018-01-21T06:33:38.007Z,3.37
2018-01-21T06:36:05.434Z,3.13
2018-01-21T06:38:32.864Z,3.90
2018-01-21T06:41:01.067Z,3.40
2018-01-21T06:43:29.259Z,4.10
2018-01-21T06:45:57.464Z,3.23
2018-01-21T06:48:24.892Z,3.23
2018-01-21T06:50:52.331Z,3.20
2018-01-21T06:53:19.761Z,3.10
2018-01-21T06:55:47.204Z,3.10
2018-01-21T06:58:14.631Z,2.90
2018-01-21T07:00:42.067Z,3.27
2018-01-21T07:03:09.495Z,3.40
2018-01-21T07:05:36.935Z,3.90
2018-01-21T07:08:04.363Z,4.07
2018-01-21T07:10:31.799Z,3.07
2018-01-21T07:12:59.223Z,4.00
2018-01-21T07:15:26.659Z,3.33
2018-01-21T07:17:54.087Z,3.70
2018-01-21T07:20:21.523Z,4.30
2018-01-21T07:22:48.947Z,3.60
2018-01-21T07:25:16.383Z,4.53
2018-01-21T07:27:43.814Z,4.00
2018-01-21T07:30:11.249Z,4.93
2018-01-21T07:32:38.683Z,5.40
2018-01-21T07:35:06.119Z,3.37
2018-01-21T07:37:33.550Z,14.30
2018-01-21T07:40:02.422Z,4.93
2018-01-21T07:42:32.729Z,4.70
2018-01-21T07:45:00.931Z,6.90
2018-01-21T07:47:28.358Z,4.50
2018-01-21T07:49:55.799Z,4.73
2018-01-21T07:52:23.239Z,4.10
2018-01-21T07:54:50.687Z,4.33
2018-01-21T07:57:18.115Z,4.47
2018-01-21T07:59:46.326Z,3.77
2018-01-21T08:02:14.518Z,4.30
2018-01-21T08:04:42.719Z,4.63
2018-01-21T08:07:10.151Z,4.33
2018-01-21T08:09:37.587Z,4.70
2018-01-21T08:12:05.021Z,4.43
2018-01-21T08:14:32.458Z,4.10
2018-01-21T08:16:59.879Z,5.23
2018-01-21T08:19:27.305Z,4.03
2018-01-21T08:21:54.739Z,4.87
2018-01-21T08:24:22.171Z,4.43
2018-01-21T08:26:49.608Z,3.83
2018-01-21T08:29:17.044Z,5.30
2018-01-21T08:31:44.495Z,4.50
2018-01-21T08:34:17.655Z,5.07
2018-01-21T08:36:50.831Z,4.30
2018-01-21T08:39:24.739Z,3.87
2018-01-21T08:41:52.724Z,4.10
2018-01-21T08:44:20.160Z,3.23
2018-01-21T08:46:48.359Z,4.20
2018-01-21T08:49:16.556Z,4.10
2018-01-21T08:51:43.990Z,3.67
2018-01-21T08:54:11.425Z,3.73
2018-01-21T08:56:39.631Z,4.10
2018-01-21T08:59:07.831Z,3.43
2018-01-21T09:01:36.039Z,3.83
2018-01-21T09:04:04.244Z,3.80
2018-01-21T09:06:31.683Z,5.13
2018-01-21T09:08:59.106Z,4.00
2018-01-21T09:11:26.547Z,4.10
2018-01-21T09:13:53.985Z,4.17
2018-01-21T09:16:21.423Z,4.57
2018-01-21T09:18:49.619Z,4.40
2018-01-21T09:21:17.823Z,4.10
2018-01-21T09:23:46.015Z,4.90
2018-01-21T09:26:13.457Z,3.93
2018-01-21T09:28:40.887Z,4.57
2018-01-21T09:31:08.320Z,3.70
2018-01-21T09:33:35.747Z,5.57
2018-01-21T09:36:03.189Z,4.63
2018-01-21T09:38:30.619Z,6.33
2018-01-21T09:40:58.055Z,5.43
2018-01-21T09:43:25.499Z,3.97
2018-01-21T09:45:52.936Z,5.17
2018-01-21T09:48:20.365Z,5.20
2018-01-21T09:50:47.808Z,4.20
2018-01-21T09:53:15.236Z,4.87
2018-01-21T09:55:43.439Z,5.07
2018-01-21T09:58:11.636Z,4.80
2018-01-21T10:00:39.843Z,5.20
2018-01-21T10:03:07.272Z,4.13
2018-01-21T10:05:34.715Z,4.90
2018-01-21T10:08:02.138Z,6.23
2018-01-21T10:10:29.566Z,6.17
2018-01-21T10:12:57.027Z,4.93
2018-01-21T10:15:24.454Z,3.67
2018-01-21T10:17:51.909Z,5.33
2018-01-21T10:20:19.336Z,7.93
2018-01-21T10:22:47.544Z,7.20
2018-01-21T10:25:15.735Z,6.83
2018-01-21T10:27:43.173Z,7.03
2018-01-21T10:30:10.599Z,6.90
2018-01-21T10:32:38.807Z,5.40
2018-01-21T10:35:06.240Z,4.67
2018-01-21T10:37:33.676Z,4.70
2018-01-21T10:40:01.103Z,3.90
2018-01-21T10:42:29.307Z,5.33
2018-01-21T10:44:56.734Z,5.20
2018-01-21T10:47:24.176Z,4.30
2018-01-21T10:49:51.611Z,3.70
2018-01-21T10:52:19.048Z,4.00
2018-01-21T10:54:46.470Z,5.13
2018-01-21T10:57:13.915Z,4.93
2018-01-21T10:59:41.351Z,4.30
2018-01-21T11:02:08.779Z,4.00
2018-01-21T11:04:36.212Z,3.13
2018-01-21T11:07:04.423Z,2.83
2018-01-21T11:09:32.620Z,8.53
2018-01-21T11:12:00.828Z,2.97
2018-01-21T11:14:29.025Z,2.53
2018-01-21T11:16:57.241Z,2.80
2018-01-21T11:19:24.707Z,2.60
2018-01-21T11:21:52.119Z,2.60
2018-01-21T11:24:19.613Z,2.47
2018-01-21T11:26:47.764Z,3.50
2018-01-21T11:29:15.979Z,3.07
2018-01-21T11:31:44.172Z,3.20
2018-01-21T11:34:12.387Z,2.67
2018-01-21T11:36:40.583Z,2.67
2018-01-21T11:39:08.791Z,2.60
2018-01-21T11:41:36.988Z,2.17
2018-01-21T11:44:05.191Z,2.20
2018-01-21T11:46:33.392Z,3.17
2018-01-21T11:49:01.590Z,5.50
2018-01-21T11:51:29.035Z,4.20
2018-01-21T11:53:56.468Z,4.03
2018-01-21T11:56:23.891Z,2.30
2018-01-21T11:58:51.332Z,2.53
2018-01-21T12:01:18.755Z,3.73
2018-01-21T12:03:46.187Z,5.93
2018-01-21T12:06:13.615Z,6.83
2018-01-21T12:08:41.051Z,13.97
2018-01-21T12:11:08.479Z,4.47
2018-01-21T12:13:35.916Z,9.13
2018-01-21T12:16:04.140Z,5.33
2018-01-21T12:18:31.575Z,5.60
2018-01-21T12:20:59.007Z,4.63
2018-01-21T12:23:26.434Z,3.53
2018-01-21T12:25:53.914Z,2.83
2018-01-21T12:28:21.377Z,3.30
2018-01-21T12:30:48.800Z,4.93
2018-01-21T12:33:16.231Z,4.17
2018-01-21T12:35:43.663Z,4.30
2018-01-21T12:38:11.133Z,3.17
2018-01-21T12:40:38.609Z,3.53
2018-01-21T12:43:06.023Z,2.90
2018-01-21T12:45:33.455Z,3.13
2018-01-21T12:48:00.883Z,2.77
2018-01-21T12:50:28.319Z,3.40
2018-01-21T12:52:55.742Z,3.63
2018-01-21T12:55:23.179Z,7.07
2018-01-21T12:57:51.231Z,4.83
2018-01-21T13:00:18.650Z,3.77
2018-01-21T13:02:46.078Z,10.80
2018-01-21T13:05:13.515Z,2.83
2018-01-21T13:07:40.989Z,3.53
2018-01-21T13:10:09.183Z,3.40
2018-01-21T13:12:36.648Z,4.13
2018-01-21T13:15:04.080Z,3.80
2018-01-21T13:17:31.508Z,3.63
2018-01-21T13:19:59.717Z,3.33
2018-01-21T13:22:27.185Z,3.53
2018-01-21T13:24:54.616Z,3.27
2018-01-21T13:27:22.044Z,4.83
2018-01-21T13:29:49.474Z,3.27
2018-01-21T13:32:16.958Z,4.90
2018-01-21T13:34:44.379Z,3.17
2018-01-21T13:37:11.821Z,4.00
2018-01-21T13:39:39.252Z,2.87
2018-01-21T13:42:06.678Z,3.10
2018-01-21T13:44:34.111Z,3.07
2018-01-21T13:47:01.593Z,13.93
2018-01-21T13:49:29.007Z,5.80
2018-01-21T13:51:56.442Z,3.70
2018-01-21T13:54:23.872Z,3.73
2018-01-21T13:56:51.311Z,4.87
2018-01-21T13:59:18.780Z,7.47
2018-01-21T14:01:46.203Z,6.03
2018-01-21T14:04:14.399Z,7.27
2018-01-21T14:06:42.595Z,3.07
2018-01-21T14:09:10.796Z,3.90
2018-01-21T14:11:38.995Z,6.87
2018-01-21T14:14:07.237Z,3.30
2018-01-21T14:16:34.647Z,3.33
2018-01-21T14:19:02.092Z,9.10
2018-01-21T14:21:29.533Z,7.83
2018-01-21T14:23:56.959Z,8.33
2018-01-21T14:26:24.436Z,6.13
2018-01-21T14:28:51.855Z,9.43
2018-01-21T14:31:19.279Z,5.80
2018-01-21T14:33:47.521Z,8.10
2018-01-21T14:36:14.948Z,6.03
2018-01-21T14:38:42.391Z,8.23
2018-01-21T14:41:09.875Z,10.67
2018-01-21T14:43:37.294Z,3.70
2018-01-21T14:48:47.340Z,18.10
2018-01-21T14:51:15.574Z,10.00
2018-01-21T14:53:43.000Z,8.40
2018-01-21T14:56:10.466Z,9.83
2018-01-21T14:58:37.951Z,6.53
2018-01-21T15:01:05.363Z,5.73
2018-01-21T15:03:32.800Z,8.00
2018-01-21T15:06:00.274Z,4.67
2018-01-21T15:08:27.687Z,3.90
2018-01-21T15:10:55.154Z,3.20
2018-01-21T15:13:22.570Z,4.73
2018-01-21T15:15:50.759Z,4.53
2018-01-21T15:18:18.955Z,4.80
2018-01-21T15:20:47.167Z,4.37
2018-01-21T15:23:15.414Z,9.33
2018-01-21T15:25:42.843Z,5.83
2018-01-21T15:28:11.035Z,5.50
2018-01-21T15:30:39.243Z,7.80
2018-01-21T15:33:07.444Z,7.10
2018-01-21T15:35:35.681Z,3.80
2018-01-21T15:38:03.095Z,5.47
2018-01-21T15:40:30.576Z,4.40
2018-01-21T15:42:57.987Z,6.73
2018-01-21T15:45:26.238Z,4.10
2018-01-21T15:47:53.692Z,8.73
2018-01-21T15:50:21.123Z,6.43
2018-01-21T15:52:48.553Z,9.37
2018-01-21T15:55:15.979Z,9.27
2018-01-21T15:57:43.410Z,15.53
2018-01-21T16:00:10.889Z,8.80
2018-01-21T16:02:39.113Z,9.57
2018-01-21T16:05:07.383Z,10.70
2018-01-21T16:07:34.786Z,13.57
2018-01-21T16:10:02.947Z,18.00
2018-01-21T16:12:30.388Z,10.37
2018-01-21T16:14:57.832Z,17.73
2018-01-21T16:17:26.032Z,9.43
2018-01-21T16:19:54.286Z,10.20
2018-01-21T16:22:21.702Z,11.00
2018-01-21T16:24:49.946Z,9.13
2018-01-21T16:27:17.370Z,7.63
2018-01-21T16:29:44.795Z,5.77
2018-01-21T16:32:12.282Z,7.10
2018-01-21T16:34:39.695Z,9.07
2018-01-21T16:37:07.131Z,12.27
2018-01-21T16:39:34.554Z,5.27
2018-01-21T16:42:01.999Z,6.83
2018-01-21T16:44:29.469Z,13.73
2018-01-21T16:46:57.696Z,7.73
2018-01-21T16:49:25.120Z,7.17
2018-01-21T16:51:52.555Z,9.60
2018-01-21T16:54:19.987Z,6.47
2018-01-21T16:56:47.431Z,11.10
2018-01-21T16:59:14.864Z,14.60
2018-01-21T17:01:43.114Z,9.60
2018-01-21T17:04:10.536Z,7.37
2018-01-21T17:06:38.734Z,7.00
2018-01-21T17:09:06.935Z,8.87
2018-01-21T17:11:35.144Z,10.73
2018-01-21T17:14:03.339Z,7.77
2018-01-21T17:16:31.543Z,12.20
2018-01-21T17:18:59.735Z,7.13
2018-01-21T17:21:27.990Z,8.70
2018-01-21T17:23:55.415Z,287.23
2018-01-21T17:26:22.909Z,465.73
2018-01-21T17:28:50.379Z,212.00
2018-01-21T17:31:18.632Z,89.60
2018-01-21T17:33:46.101Z,23.03
2018-01-21T17:36:14.292Z,13.87
2018-01-21T17:38:42.487Z,10.70
2018-01-21T17:41:10.692Z,8.07
2018-01-21T17:43:38.938Z,12.33
2018-01-21T17:46:06.405Z,8.93
2018-01-21T17:48:33.833Z,11.33
2018-01-21T17:51:01.314Z,11.90
2018-01-21T17:53:28.726Z,14.63
2018-01-21T17:55:56.220Z,8.20
2018-01-21T17:58:23.678Z,9.03
2018-01-21T18:00:51.906Z,8.73
2018-01-21T18:03:19.331Z,7.33
2018-01-21T18:05:46.759Z,12.03
2018-01-21T18:08:14.199Z,8.20
2018-01-21T18:10:41.627Z,11.80
2018-01-21T18:13:09.078Z,12.43
2018-01-21T18:15:37.330Z,20.77
2018-01-21T18:18:04.806Z,16.20
2018-01-21T18:20:32.295Z,18.23
2018-01-21T18:22:59.784Z,16.60
2018-01-21T18:25:27.208Z,7.80
2018-01-21T18:27:55.407Z,10.73
2018-01-21T18:30:23.673Z,11.80
2018-01-21T18:32:51.146Z,6.87
2018-01-21T18:35:18.639Z,12.13
2018-01-21T18:37:46.067Z,9.00
2018-01-21T18:40:13.550Z,7.70
2018-01-21T18:42:41.752Z,32.20
2018-01-21T18:45:09.196Z,32.83
2018-01-21T18:47:36.694Z,71.83
2018-01-21T18:50:04.119Z,90.93
2018-01-21T18:52:31.567Z,47.23
2018-01-21T18:54:59.052Z,13.03
2018-01-21T18:57:27.297Z,11.60
2018-01-21T18:59:54.727Z,13.50
2018-01-21T19:02:22.939Z,10.17
2018-01-21T19:04:50.373Z,11.60
2018-01-21T19:07:17.823Z,12.20
2018-01-21T19:09:45.301Z,13.43
2018-01-21T19:12:12.783Z,11.73
2018-01-21T19:14:40.259Z,8.70
2018-01-21T19:17:07.746Z,10.67
2018-01-21T19:19:35.171Z,10.47
2018-01-21T19:22:02.607Z,17.37
2018-01-21T19:24:30.099Z,10.00
2018-01-21T19:26:57.587Z,10.90
2018-01-21T19:29:25.007Z,14.23
2018-01-21T19:31:53.219Z,7.03
2018-01-21T19:34:21.468Z,9.60
2018-01-21T19:36:48.950Z,11.40
2018-01-21T19:39:25.059Z,22.20
2018-01-21T19:41:53.056Z,12.63
2018-01-21T19:44:20.550Z,10.03
2018-01-21T19:46:47.974Z,10.77
2018-01-21T19:49:15.479Z,38.93
2018-01-21T19:51:42.901Z,27.83
2018-01-21T19:54:11.233Z,54.73
2018-01-21T19:56:38.702Z,48.77
2018-01-21T19:59:06.130Z,39.03
2018-01-21T20:01:33.568Z,44.70
2018-01-21T20:04:01.067Z,26.37
2018-01-21T20:06:28.544Z,18.77
2018-01-21T20:08:55.975Z,13.20
2018-01-21T20:11:24.175Z,15.13
2018-01-21T20:13:51.627Z,15.93
2018-01-21T20:16:19.108Z,19.73
2018-01-21T20:18:46.599Z,12.63
2018-01-21T20:21:14.076Z,10.87
2018-01-21T20:23:41.507Z,18.70
2018-01-21T20:26:09.003Z,13.90
2018-01-21T20:28:36.479Z,16.57
2018-01-21T20:31:03.956Z,16.97
2018-01-21T20:33:32.189Z,17.00
2018-01-21T20:35:59.674Z,14.93
2018-01-21T20:38:27.150Z,11.20
2018-01-21T20:40:54.633Z,12.67
2018-01-21T20:43:22.096Z,13.03
2018-01-21T20:45:49.574Z,13.37
2018-01-21T20:48:17.830Z,14.77
2018-01-21T20:50:45.247Z,8.27
2018-01-21T20:56:19.559Z,14.60
2018-01-21T20:58:47.042Z,9.00
2018-01-21T21:01:14.513Z,13.77
2018-01-21T21:03:41.998Z,11.30
2018-01-21T21:06:09.466Z,11.80
2018-01-21T21:08:37.663Z,8.97
2018-01-21T21:11:05.147Z,8.17
2018-01-21T21:13:33.395Z,6.80
2018-01-21T21:16:00.866Z,13.17
2018-01-21T21:18:28.351Z,12.33
2018-01-21T21:20:55.822Z,10.27
2018-01-21T21:23:23.316Z,10.50
2018-01-21T21:25:50.794Z,14.03
2018-01-21T21:28:18.230Z,11.50
2018-01-21T21:30:45.672Z,14.93
2018-01-21T21:33:13.145Z,9.67
2018-01-21T21:35:40.624Z,11.50
2018-01-21T21:38:08.047Z,11.07
2018-01-21T21:40:36.302Z,8.93
2018-01-21T21:43:03.723Z,12.77
2018-01-21T21:45:31.935Z,8.80
2018-01-21T21:47:59.385Z,15.17
2018-01-21T21:50:26.831Z,24.03
2018-01-21T21:52:54.268Z,15.50
2018-01-21T21:55:22.532Z,16.60
2018-01-21T21:57:50.009Z,12.67
2018-01-21T22:00:17.476Z,18.80
2018-01-21T22:02:44.905Z,11.37
2018-01-21T22:05:12.385Z,9.80
2018-01-21T22:07:39.854Z,17.93
2018-01-21T22:10:07.340Z,14.90
2018-01-21T22:12:35.527Z,8.73
2018-01-21T22:15:03.019Z,15.13
2018-01-21T22:17:30.439Z,15.97
2018-01-21T22:19:57.931Z,21.27
2018-01-21T22:22:25.430Z,12.53
2018-01-21T22:24:52.911Z,24.23
2018-01-21T22:27:20.327Z,20.13
2018-01-21T22:29:47.813Z,18.03
2018-01-21T22:32:15.239Z,17.93
2018-01-21T22:34:42.688Z,22.87
2018-01-21T22:37:10.892Z,16.03
2018-01-21T22:39:39.141Z,13.13
2018-01-21T22:42:06.620Z,14.23
2018-01-21T22:44:34.093Z,20.00
2018-01-21T22:47:01.515Z,18.20
2018-01-21T22:49:28.971Z,17.27
2018-01-21T22:51:56.406Z,13.90
2018-01-21T22:54:23.901Z,17.03
2018-01-21T22:56:51.370Z,15.77
2018-01-21T22:59:19.585Z,16.83
2018-01-21T23:01:47.028Z,17.40
2018-01-21T23:04:15.247Z,18.40
2018-01-21T23:06:42.682Z,17.60
2018-01-21T23:09:10.132Z,15.40
2018-01-21T23:11:37.571Z,13.67
2018-01-21T23:14:05.779Z,14.30
2018-01-21T23:16:33.982Z,10.77
2018-01-21T23:19:02.179Z,12.57
2018-01-21T23:21:30.388Z,13.30
2018-01-21T23:23:57.825Z,13.13
2018-01-21T23:26:25.259Z,13.97
2018-01-21T23:28:52.695Z,13.27
2018-01-21T23:31:20.134Z,12.23
2018-01-21T23:33:47.571Z,13.03
2018-01-21T23:36:15.787Z,15.53
2018-01-21T23:38:43.987Z,17.10
2018-01-21T23:41:11.431Z,12.50
2018-01-21T23:43:38.867Z,13.47
2018-01-21T23:46:06.311Z,16.20
2018-01-21T23:48:34.515Z,13.07
2018-01-21T23:51:02.727Z,12.30
2018-01-21T23:53:30.163Z,13.10
2018-01-21T23:55:57.603Z,14.90
2018-01-21T23:58:25.046Z,17.50
